createdAt,value
2023-07-19T00:02:24.296Z,4.65
2023-07-19T00:07:25.861Z,5.47
2023-07-19T00:17:29.414Z,2.63
2023-07-19T00:22:32.073Z,1.98
2023-07-19T00:27:33.968Z,2.58
2023-07-19T00:32:35.815Z,2.40
2023-07-19T00:37:37.313Z,5.82
2023-07-19T00:42:38.827Z,2.28
2023-07-19T00:47:40.786Z,3.25
2023-07-19T00:52:42.892Z,2.38
2023-07-19T00:57:44.524Z,6.18
2023-07-19T01:02:46.174Z,2.47
2023-07-19T01:07:47.833Z,3.15
2023-07-19T01:13:09.263Z,4.75
2023-07-19T01:18:10.837Z,2.60
2023-07-19T01:23:13.172Z,3.25
2023-07-19T01:28:16.201Z,2.90
2023-07-19T01:33:28.470Z,7.25
2023-07-19T01:38:36.236Z,5.10
2023-07-19T01:43:37.843Z,2.70
2023-07-19T01:48:39.371Z,5.93
2023-07-19T01:53:40.873Z,5.43
2023-07-19T01:58:44.270Z,2.80
2023-07-19T02:03:45.764Z,5.07
2023-07-19T02:08:48.209Z,2.45
2023-07-19T02:13:49.871Z,3.95
2023-07-19T02:18:51.370Z,10.98
2023-07-19T02:23:52.847Z,5.72
2023-07-19T02:28:55.783Z,2.53
2023-07-19T02:33:57.308Z,2.28
2023-07-19T02:38:58.817Z,3.35
2023-07-19T02:44:00.583Z,2.00
2023-07-19T02:49:02.191Z,4.57
2023-07-19T02:54:03.724Z,2.75
2023-07-19T02:59:06.191Z,3.53
2023-07-19T03:04:07.975Z,3.00
2023-07-19T03:09:12.030Z,2.97
2023-07-19T03:14:13.564Z,4.30
2023-07-19T03:19:15.104Z,5.88
2023-07-19T03:24:17.224Z,2.92
2023-07-19T03:29:18.704Z,4.65
2023-07-19T03:34:20.448Z,3.45
2023-07-19T03:39:21.990Z,5.60
2023-07-19T03:44:23.536Z,5.25
2023-07-19T03:49:26.376Z,3.75
2023-07-19T03:54:28.017Z,4.45
2023-07-19T03:59:31.087Z,4.82
2023-07-19T04:04:32.763Z,4.70
2023-07-19T04:09:34.380Z,6.50
2023-07-19T04:14:35.933Z,4.70
2023-07-19T04:19:37.612Z,2.75
2023-07-19T04:24:39.647Z,5.40
2023-07-19T04:29:41.331Z,3.95
2023-07-19T04:34:42.860Z,2.80
2023-07-19T04:39:44.807Z,3.95
2023-07-19T04:44:47.460Z,3.78
2023-07-19T04:49:49.017Z,3.58
2023-07-19T04:54:51.095Z,6.55
2023-07-19T04:59:52.712Z,6.50
2023-07-19T05:04:54.473Z,4.90
2023-07-19T05:09:56.165Z,3.35
2023-07-19T05:14:57.924Z,4.53
2023-07-19T05:19:59.958Z,6.88
2023-07-19T05:25:04.421Z,3.40
2023-07-19T05:30:06.548Z,6.10
2023-07-19T05:35:08.133Z,7.20
2023-07-19T05:40:10.701Z,5.20
2023-07-19T05:45:12.197Z,4.70
2023-07-19T05:50:13.729Z,5.50
2023-07-19T05:55:16.199Z,3.63
2023-07-19T06:00:30.020Z,2.95
2023-07-19T06:05:31.677Z,3.30
2023-07-19T06:10:33.176Z,4.85
2023-07-19T06:15:34.826Z,6.05
2023-07-19T06:20:36.809Z,4.85
2023-07-19T06:25:38.676Z,6.15
2023-07-19T06:30:40.201Z,4.63
2023-07-19T06:35:41.836Z,7.07
2023-07-19T06:40:43.361Z,6.28
2023-07-19T06:45:48.664Z,7.55
2023-07-19T06:50:51.011Z,11.07
2023-07-19T06:55:58.793Z,9.10
2023-07-19T07:01:00.397Z,6.43
2023-07-19T07:06:04.064Z,6.70
2023-07-19T07:11:05.926Z,4.88
2023-07-19T07:16:07.799Z,8.55
2023-07-19T07:21:09.919Z,4.95
2023-07-19T07:26:11.379Z,6.18
2023-07-19T07:31:13.140Z,4.25
2023-07-19T07:36:15.053Z,5.97
2023-07-19T07:41:17.406Z,6.13
2023-07-19T07:46:18.901Z,5.32
2023-07-19T07:51:20.823Z,11.55
2023-07-19T07:56:24.606Z,8.20
2023-07-19T08:01:26.525Z,6.78
2023-07-19T08:06:28.216Z,7.05
2023-07-19T08:11:29.892Z,6.47
2023-07-19T08:16:31.470Z,7.88
2023-07-19T08:21:36.732Z,7.53
2023-07-19T08:26:39.512Z,4.50
2023-07-19T08:31:40.998Z,4.78
2023-07-19T08:36:42.495Z,5.50
2023-07-19T08:41:44.650Z,7.45
2023-07-19T08:46:47.399Z,6.15
2023-07-19T08:51:49.071Z,4.10
2023-07-19T08:56:50.913Z,6.47
2023-07-19T09:01:52.945Z,6.15
2023-07-19T09:06:54.466Z,8.88
2023-07-19T09:11:55.913Z,11.57
2023-07-19T09:16:57.376Z,8.23
2023-07-19T09:22:04.663Z,7.85
2023-07-19T09:27:06.334Z,5.68
2023-07-19T09:32:08.540Z,8.00
2023-07-19T09:37:11.162Z,6.53
2023-07-19T09:42:14.555Z,5.63
2023-07-19T09:47:28.284Z,8.40
2023-07-19T09:52:36.903Z,4.57
2023-07-19T09:57:41.156Z,4.38
2023-07-19T10:02:42.801Z,4.72
2023-07-19T10:07:51.868Z,3.50
2023-07-19T10:12:54.003Z,3.45
2023-07-19T10:17:57.477Z,3.05
2023-07-19T10:23:09.540Z,3.35
2023-07-19T10:28:13.745Z,6.93
2023-07-19T10:33:20.383Z,5.35
2023-07-19T10:38:26.939Z,7.18
2023-07-19T10:43:46.904Z,2.22
2023-07-19T10:48:53.571Z,3.20
2023-07-19T10:53:59.171Z,3.33
2023-07-19T10:59:02.037Z,5.43
2023-07-19T11:04:08.355Z,2.70
2023-07-19T11:09:10.631Z,2.88
2023-07-19T11:14:28.104Z,1.55
2023-07-19T11:19:47.881Z,1.63
2023-07-19T11:24:53.978Z,1.48
2023-07-19T11:29:55.917Z,1.90
2023-07-19T11:35:01.784Z,3.35
2023-07-19T11:40:06.677Z,2.70
2023-07-19T11:45:20.143Z,4.68
2023-07-19T11:50:24.597Z,1.40
2023-07-19T11:55:26.435Z,3.03
2023-07-19T12:00:28.371Z,1.10
2023-07-19T12:05:30.300Z,3.33
2023-07-19T12:10:31.923Z,1.20
2023-07-19T12:15:33.457Z,1.00
2023-07-19T12:20:35.041Z,1.40
2023-07-19T12:25:36.572Z,1.30
2023-07-19T12:30:38.674Z,3.10
2023-07-19T12:35:40.644Z,1.77
2023-07-19T12:40:43.065Z,1.52
2023-07-19T12:45:44.846Z,1.60
2023-07-19T12:50:46.492Z,5.57
2023-07-19T12:55:47.994Z,3.03
2023-07-19T13:00:49.777Z,5.28
2023-07-19T13:05:51.329Z,4.10
2023-07-19T13:10:52.878Z,1.60
2023-07-19T13:15:54.364Z,3.97
2023-07-19T13:20:57.143Z,2.42
2023-07-19T13:25:58.887Z,3.45
2023-07-19T13:31:01.339Z,1.27
2023-07-19T13:36:03.057Z,2.15
2023-07-19T13:41:04.686Z,1.05
2023-07-19T13:46:06.224Z,3.05
2023-07-19T13:51:07.768Z,1.27
2023-07-19T13:56:09.649Z,1.83
2023-07-19T14:01:13.052Z,0.90
2023-07-19T14:06:17.317Z,0.75
2023-07-19T14:11:18.855Z,1.23
2023-07-19T14:16:20.423Z,3.80
2023-07-19T14:21:22.795Z,1.60
2023-07-19T14:26:25.005Z,4.43
2023-07-19T14:31:26.999Z,2.58
2023-07-19T14:36:28.687Z,2.35
2023-07-19T14:41:30.895Z,2.08
2023-07-19T14:46:34.408Z,1.88
2023-07-19T14:51:36.507Z,1.60
2023-07-19T14:56:38.077Z,1.92
2023-07-19T15:01:39.845Z,1.73
2023-07-19T15:06:42.913Z,3.08
2023-07-19T15:11:46.351Z,0.88
2023-07-19T15:16:49.803Z,1.63
2023-07-19T15:21:51.409Z,2.92
2023-07-19T15:26:53.695Z,1.88
2023-07-19T15:31:56.728Z,1.67
2023-07-19T15:36:58.371Z,1.70
2023-07-19T15:42:00.659Z,2.00
2023-07-19T15:47:03.424Z,2.45
2023-07-19T15:52:07.203Z,2.40
2023-07-19T15:57:08.725Z,1.20
2023-07-19T16:02:10.563Z,1.40
2023-07-19T16:07:14.412Z,2.42
2023-07-19T16:12:16.138Z,2.45
2023-07-19T16:17:17.656Z,5.70
2023-07-19T16:22:19.166Z,1.83
2023-07-19T16:27:20.664Z,2.88
2023-07-19T16:32:22.236Z,2.28
2023-07-19T16:37:23.899Z,3.22
2023-07-19T16:42:25.663Z,4.93
2023-07-19T16:47:28.703Z,2.80
2023-07-19T16:52:30.505Z,3.03
2023-07-19T16:57:32.141Z,5.93
2023-07-19T17:02:33.707Z,2.03
2023-07-19T17:07:35.376Z,1.77
2023-07-19T17:12:36.993Z,2.25
2023-07-19T17:17:38.826Z,1.80
2023-07-19T17:22:41.202Z,2.60
2023-07-19T17:27:42.866Z,3.72
2023-07-19T17:32:46.618Z,4.70
2023-07-19T17:37:50.178Z,2.78
2023-07-19T17:42:51.777Z,2.03
2023-07-19T17:47:53.300Z,3.97
2023-07-19T17:52:55.183Z,2.35
2023-07-19T17:57:57.990Z,1.40
2023-07-19T18:02:59.740Z,2.00
2023-07-19T18:08:15.802Z,1.67
2023-07-19T18:13:21.994Z,3.67
2023-07-19T18:18:23.734Z,2.83
2023-07-19T18:23:26.163Z,2.58
2023-07-19T18:28:27.731Z,4.45
2023-07-19T18:33:29.505Z,3.42
2023-07-19T18:38:31.368Z,4.07
2023-07-19T18:43:33.094Z,6.30
2023-07-19T18:48:34.850Z,4.20
2023-07-19T18:53:37.277Z,1.67
2023-07-19T18:58:38.803Z,2.65
2023-07-19T19:03:40.452Z,3.28
2023-07-19T19:08:42.151Z,6.03
2023-07-19T19:13:43.854Z,6.57
2023-07-19T19:18:45.523Z,4.70
2023-07-19T19:23:47.128Z,3.20
2023-07-19T19:28:48.662Z,4.40
2023-07-19T19:33:50.211Z,3.97
2023-07-19T19:38:51.833Z,3.75
2023-07-19T19:43:53.496Z,1.98
2023-07-19T19:48:55.171Z,2.67
2023-07-19T19:53:56.923Z,2.80
2023-07-19T19:58:58.990Z,3.78
2023-07-19T20:09:05.438Z,1.80
2023-07-19T20:14:16.569Z,2.60
2023-07-19T20:24:26.935Z,2.45
2023-07-19T20:30:01.777Z,1.95
2023-07-19T20:34:57.147Z,4.82
2023-07-19T20:39:59.067Z,1.58
2023-07-19T20:45:00.653Z,1.50
2023-07-19T20:50:03.654Z,2.13
2023-07-19T20:55:05.998Z,2.47
2023-07-19T21:00:08.266Z,3.88
2023-07-19T21:05:09.761Z,2.65
2023-07-19T21:10:11.486Z,1.88
2023-07-19T21:15:13.278Z,4.57
2023-07-19T21:20:14.943Z,1.63
2023-07-19T21:25:18.144Z,2.60
2023-07-19T21:30:19.789Z,2.30
2023-07-19T21:35:21.408Z,4.18
2023-07-19T21:40:23.113Z,2.85
2023-07-19T21:45:25.176Z,4.20
2023-07-19T21:50:26.933Z,2.63
2023-07-19T21:55:28.621Z,1.73
2023-07-19T22:00:41.594Z,2.25
2023-07-19T22:05:45.290Z,1.88
2023-07-19T22:10:47.858Z,2.28
2023-07-19T22:15:49.849Z,2.25
2023-07-19T22:21:01.060Z,1.75
2023-07-19T22:26:09.330Z,2.78
2023-07-19T22:31:10.960Z,2.05
2023-07-19T22:36:12.519Z,2.33
2023-07-19T22:41:15.556Z,1.88
2023-07-19T22:46:19.691Z,1.42
2023-07-19T22:51:22.527Z,2.17
2023-07-19T22:56:24.679Z,2.20
2023-07-19T23:01:26.419Z,2.65
2023-07-19T23:06:28.286Z,2.70
2023-07-19T23:11:29.940Z,3.55
2023-07-19T23:16:31.925Z,2.33
2023-07-19T23:21:33.525Z,2.78
2023-07-19T23:26:35.077Z,2.58
2023-07-19T23:31:36.572Z,3.20
2023-07-19T23:36:38.617Z,3.30
2023-07-19T23:41:40.325Z,2.47
2023-07-19T23:46:42.201Z,2.17
2023-07-19T23:51:43.825Z,3.95
2023-07-19T23:56:45.460Z,2.00
